createdAt,value
2023-02-09T00:01:32.433Z,26.50
2023-02-09T00:04:03.709Z,30.00
2023-02-09T00:06:33.899Z,28.40
2023-02-09T00:09:04.200Z,27.10
2023-02-09T00:11:51.707Z,26.40
2023-02-09T00:14:22.068Z,26.80
2023-02-09T00:16:52.661Z,31.50
2023-02-09T00:19:22.665Z,27.90
2023-02-09T00:21:51.091Z,29.60
2023-02-09T00:24:20.408Z,24.70
2023-02-09T00:26:49.106Z,25.60
2023-02-09T00:29:24.501Z,26.30
2023-02-09T00:31:54.143Z,30.10
2023-02-09T00:34:23.491Z,26.30
2023-02-09T00:36:53.178Z,27.30
2023-02-09T00:39:22.456Z,27.90
2023-02-09T00:42:07.850Z,25.80
2023-02-09T00:44:40.780Z,28.00
2023-02-09T00:47:10.264Z,25.70
2023-02-09T00:49:40.546Z,28.70
2023-02-09T00:52:10.286Z,26.80
2023-02-09T00:54:38.825Z,27.00
2023-02-09T00:57:07.656Z,26.50
2023-02-09T00:59:37.027Z,26.80
2023-02-09T04:03:22.207Z,29.70
2023-02-09T04:05:51.531Z,35.40
2023-02-09T04:08:20.861Z,33.10
2023-02-09T04:10:49.825Z,32.70
2023-02-09T04:13:19.345Z,34.90
2023-02-09T04:15:48.922Z,34.80
2023-02-09T04:18:18.309Z,33.70
2023-02-09T04:20:47.922Z,33.70
2023-02-09T04:23:18.999Z,28.10
2023-02-09T04:25:50.438Z,32.00
2023-02-09T04:28:20.685Z,31.60
2023-02-09T04:30:57.113Z,38.50
2023-02-09T04:33:26.374Z,32.20
2023-02-09T04:35:55.873Z,31.60
2023-02-09T04:38:26.659Z,32.50
2023-02-09T04:40:56.960Z,33.10
2023-02-09T04:43:26.310Z,33.40
2023-02-09T04:45:56.202Z,35.30
2023-02-09T04:48:26.783Z,35.10
2023-02-09T04:50:55.258Z,31.90
2023-02-09T04:53:25.302Z,31.30
2023-02-09T04:55:53.886Z,33.60
2023-02-09T04:58:41.244Z,33.60
2023-02-09T05:01:15.308Z,32.80
2023-02-09T05:03:44.779Z,32.60
2023-02-09T05:06:14.022Z,29.70
2023-02-09T05:08:43.421Z,33.10
2023-02-09T05:11:13.037Z,34.80
2023-02-09T05:13:43.078Z,31.30
2023-02-09T05:16:16.684Z,36.70
2023-02-09T05:18:46.581Z,34.30
2023-02-09T05:21:16.135Z,41.60
2023-02-09T05:23:45.529Z,48.40
2023-02-09T05:26:14.848Z,54.10
2023-02-09T05:28:43.338Z,49.60
2023-02-09T05:31:12.909Z,43.00
2023-02-09T05:33:42.233Z,44.30
2023-02-09T05:36:13.375Z,47.30
2023-02-09T05:38:42.169Z,37.50
2023-02-09T05:41:33.987Z,47.10
2023-02-09T05:44:03.239Z,43.70
2023-02-09T05:46:32.763Z,49.30
2023-02-09T05:49:02.145Z,46.80
2023-02-09T05:51:31.300Z,45.00
2023-02-09T05:54:00.843Z,44.30
2023-02-09T05:56:30.650Z,47.40
2023-02-09T05:59:00.322Z,42.30
2023-02-09T06:01:29.597Z,42.10
2023-02-09T06:03:58.923Z,43.10
2023-02-09T06:06:27.885Z,44.70
2023-02-09T06:09:02.669Z,43.60
2023-02-09T06:11:40.330Z,41.20
2023-02-09T06:14:12.744Z,45.80
2023-02-09T06:16:51.676Z,43.20
2023-02-09T06:19:22.138Z,43.10
2023-02-09T06:21:51.586Z,44.40
2023-02-09T06:24:20.989Z,38.70
2023-02-09T06:26:50.277Z,37.20
2023-02-09T06:29:19.470Z,48.60
2023-02-09T06:31:51.199Z,49.10
2023-02-09T06:34:23.123Z,43.40
2023-02-09T06:36:52.465Z,40.00
2023-02-09T06:39:21.633Z,48.70
2023-02-09T06:41:51.251Z,58.70
2023-02-09T06:44:20.497Z,46.60
2023-02-09T06:46:49.803Z,40.00
2023-02-09T06:49:19.061Z,48.30
2023-02-09T06:51:48.758Z,47.60
2023-02-09T06:54:17.627Z,47.20
2023-02-09T06:56:46.924Z,42.90
2023-02-09T06:59:16.591Z,41.90
2023-02-09T07:01:45.224Z,53.70
2023-02-09T07:04:14.673Z,46.70
2023-02-09T07:06:43.084Z,39.20
2023-02-09T07:09:11.853Z,40.10
2023-02-09T07:11:40.490Z,42.30
2023-02-09T07:14:08.790Z,46.20
2023-02-09T07:16:37.917Z,39.30
2023-02-09T07:19:06.749Z,43.10
2023-02-09T07:21:36.193Z,41.10
2023-02-09T07:24:05.437Z,39.10
2023-02-09T07:26:34.285Z,47.10
2023-02-09T07:29:02.925Z,45.90
2023-02-09T07:31:32.445Z,64.60
2023-02-09T07:34:01.351Z,57.40
2023-02-09T07:36:30.478Z,43.50
2023-02-09T07:39:00.214Z,42.20
2023-02-09T07:41:30.425Z,45.00
2023-02-09T07:44:00.344Z,35.00
2023-02-09T07:46:29.539Z,35.20
2023-02-09T07:49:01.094Z,40.60
2023-02-09T07:51:32.880Z,41.40
2023-02-09T07:54:05.468Z,37.90
2023-02-09T07:56:41.332Z,39.50
2023-02-09T07:59:12.217Z,46.40
2023-02-09T08:01:40.996Z,42.90
2023-02-09T08:04:10.468Z,39.10
2023-02-09T08:06:43.469Z,36.00
2023-02-09T08:09:16.848Z,33.70
2023-02-09T08:12:04.150Z,41.30
2023-02-09T08:14:44.622Z,37.20
2023-02-09T08:17:20.747Z,35.30
2023-02-09T08:20:15.948Z,38.40
2023-02-09T08:22:49.721Z,36.00
2023-02-09T08:25:21.745Z,40.40
2023-02-09T08:27:52.199Z,35.30
2023-02-09T08:30:21.910Z,36.40
2023-02-09T08:32:51.344Z,39.90
2023-02-09T08:35:20.712Z,36.00
2023-02-09T08:37:49.249Z,34.70
2023-02-09T08:40:18.316Z,43.10
2023-02-09T08:42:47.593Z,40.50
2023-02-09T08:45:16.850Z,44.30
2023-02-09T08:47:45.996Z,40.30
2023-02-09T08:50:15.636Z,43.50
2023-02-09T08:52:45.137Z,54.10
2023-02-09T08:55:15.199Z,52.80
2023-02-09T08:57:44.874Z,72.80
2023-02-09T09:00:15.272Z,50.70
2023-02-09T09:02:43.647Z,52.20
2023-02-09T09:05:13.113Z,53.30
2023-02-09T09:07:42.268Z,56.40
2023-02-09T09:10:11.411Z,52.90
2023-02-09T09:12:40.032Z,49.40
2023-02-09T09:15:09.014Z,51.60
2023-02-09T09:17:37.583Z,47.20
2023-02-09T09:20:07.188Z,59.20
2023-02-09T09:22:36.141Z,63.00
2023-02-09T09:25:06.386Z,65.10
2023-02-09T09:27:36.343Z,62.80
2023-02-09T09:30:06.304Z,60.80
2023-02-09T09:32:34.866Z,55.50
2023-02-09T09:35:03.687Z,45.80
2023-02-09T09:37:33.508Z,52.50
2023-02-09T09:40:02.086Z,47.80
2023-02-09T09:42:34.844Z,51.20
2023-02-09T09:45:07.841Z,53.70
2023-02-09T09:47:41.751Z,54.10
2023-02-09T09:50:36.600Z,59.30
2023-02-09T09:53:33.687Z,72.70
2023-02-09T09:56:09.138Z,63.30
2023-02-09T09:58:41.812Z,47.40
2023-02-09T10:01:19.273Z,41.50
2023-02-09T10:03:48.547Z,37.30
2023-02-09T10:06:20.935Z,39.00
2023-02-09T10:08:59.773Z,37.50
2023-02-09T10:11:35.529Z,38.30
2023-02-09T10:14:04.461Z,35.90
2023-02-09T10:16:38.464Z,37.00
2023-02-09T10:19:21.820Z,35.40
2023-02-09T10:21:51.713Z,36.90
2023-02-09T10:24:34.808Z,40.60
2023-02-09T10:27:05.685Z,34.30
2023-02-09T10:29:35.923Z,36.50
2023-02-09T10:32:07.073Z,30.90
2023-02-09T10:34:38.451Z,35.40
2023-02-09T10:37:22.061Z,32.60
2023-02-09T10:40:13.861Z,33.10
2023-02-09T10:43:04.457Z,36.60
2023-02-09T10:45:40.009Z,32.20
2023-02-09T10:48:12.087Z,33.20
2023-02-09T10:51:07.974Z,32.90
2023-02-09T10:53:40.076Z,32.60
2023-02-09T10:56:50.059Z,35.00
2023-02-09T10:59:19.972Z,30.30
2023-02-09T11:02:04.100Z,25.80
2023-02-09T11:04:42.529Z,28.80
2023-02-09T11:07:22.168Z,29.90
2023-02-09T11:09:53.692Z,28.70
2023-02-09T11:12:23.177Z,44.30
2023-02-09T11:14:51.650Z,43.50
2023-02-09T11:17:29.939Z,29.90
2023-02-09T11:20:44.691Z,38.70
2023-02-09T11:23:32.587Z,33.80
2023-02-09T11:26:27.403Z,53.30
2023-02-09T11:29:15.869Z,38.20
2023-02-09T11:32:19.910Z,32.10
2023-02-09T11:34:48.735Z,39.60
2023-02-09T11:37:42.550Z,37.00
2023-02-09T11:40:30.376Z,45.80
2023-02-09T11:42:58.611Z,33.50
2023-02-09T11:45:37.608Z,86.70
2023-02-09T11:48:29.479Z,89.00
2023-02-09T11:51:04.929Z,106.70
2023-02-09T11:53:51.699Z,106.50
2023-02-09T11:56:24.328Z,46.00
2023-02-09T11:59:24.436Z,57.90
2023-02-09T12:01:59.625Z,44.00
2023-02-09T12:04:45.006Z,43.60
2023-02-09T12:07:26.960Z,37.90
2023-02-09T12:10:20.637Z,34.80
2023-02-09T12:13:22.174Z,124.70
2023-02-09T12:15:55.158Z,81.30
2023-02-09T12:18:30.493Z,51.70
2023-02-09T12:21:03.112Z,59.50
2023-02-09T12:23:32.556Z,78.30
2023-02-09T12:26:03.375Z,61.90
2023-02-09T12:28:36.171Z,51.10
2023-02-09T12:31:09.442Z,34.60
2023-02-09T12:33:40.875Z,36.70
2023-02-09T12:36:10.315Z,41.00
2023-02-09T12:39:03.928Z,38.90
2023-02-09T12:44:09.797Z,31.20
2023-02-09T12:46:55.790Z,26.10
2023-02-09T12:49:34.271Z,27.70
2023-02-09T12:52:04.176Z,28.60
2023-02-09T12:54:59.487Z,31.90
2023-02-09T12:57:28.646Z,28.00
2023-02-09T12:59:59.319Z,26.20
2023-02-09T13:02:56.875Z,27.50
2023-02-09T13:05:33.090Z,32.40
2023-02-09T13:08:11.315Z,27.40
2023-02-09T13:11:01.159Z,31.40
2023-02-09T13:13:32.438Z,31.40
2023-02-09T13:16:00.925Z,36.10
2023-02-09T13:18:33.105Z,33.70
2023-02-09T13:21:13.848Z,41.20
2023-02-09T13:23:51.404Z,38.10
2023-02-09T13:26:27.514Z,53.00
2023-02-09T13:29:21.069Z,51.60
2023-02-09T13:32:10.157Z,51.30
2023-02-09T13:34:45.033Z,33.20
2023-02-09T13:37:32.713Z,34.10
2023-02-09T13:40:10.782Z,33.40
2023-02-09T13:42:55.977Z,30.20
2023-02-09T13:45:27.000Z,32.70
2023-02-09T13:47:57.431Z,29.00
2023-02-09T13:50:29.692Z,33.30
2023-02-09T13:53:10.458Z,34.30
2023-02-09T13:55:45.906Z,39.40
2023-02-09T13:58:20.316Z,35.20
2023-02-09T14:00:51.708Z,35.30
2023-02-09T14:03:24.863Z,38.90
2023-02-09T14:06:15.087Z,38.50
2023-02-09T14:08:45.693Z,37.20
2023-02-09T14:11:42.603Z,37.00
2023-02-09T14:15:00.792Z,36.80
2023-02-09T14:17:35.338Z,35.50
2023-02-09T14:20:18.530Z,38.20
2023-02-09T14:22:57.155Z,38.50
2023-02-09T14:25:31.604Z,43.50
2023-02-09T14:28:03.187Z,43.70
2023-02-09T14:30:36.853Z,41.50
2023-02-09T14:33:06.685Z,44.60
2023-02-09T14:35:41.894Z,39.20
2023-02-09T14:38:43.050Z,36.20
2023-02-09T14:41:27.194Z,34.00
2023-02-09T14:46:51.306Z,33.40
2023-02-09T14:49:21.449Z,35.40
2023-02-09T14:51:57.687Z,38.60
2023-02-09T14:54:30.321Z,40.60
2023-02-09T14:57:05.267Z,50.80
2023-02-09T14:59:34.793Z,45.50
2023-02-09T15:02:19.590Z,58.50
2023-02-09T15:04:49.624Z,48.80
2023-02-09T15:07:37.913Z,43.60
2023-02-09T15:10:16.465Z,56.60
2023-02-09T15:12:45.498Z,39.70
2023-02-09T15:15:20.388Z,59.90
2023-02-09T15:17:49.840Z,48.70
2023-02-09T15:20:27.358Z,43.20
2023-02-09T15:22:57.035Z,54.00
2023-02-09T15:25:27.110Z,43.90
2023-02-09T15:27:59.436Z,41.50
2023-02-09T15:30:32.998Z,43.80
2023-02-09T15:33:02.546Z,52.30
2023-02-09T15:35:32.277Z,51.80
2023-02-09T15:38:02.492Z,44.10
2023-02-09T15:40:53.923Z,49.50
2023-02-09T15:43:43.996Z,43.60
2023-02-09T15:46:13.592Z,47.70
2023-02-09T15:48:42.966Z,52.50
2023-02-09T15:51:12.961Z,47.70
2023-02-09T15:53:43.616Z,35.80
2023-02-09T15:56:14.883Z,40.50
2023-02-09T15:58:45.774Z,47.00
2023-02-09T16:01:17.535Z,56.70
2023-02-09T16:03:46.956Z,62.70
2023-02-09T16:06:19.284Z,107.40
2023-02-09T16:08:51.512Z,69.50
2023-02-09T16:11:27.457Z,49.90
2023-02-09T16:13:56.378Z,45.70
2023-02-09T16:16:28.195Z,47.50
2023-02-09T16:18:57.595Z,112.60
2023-02-09T16:21:32.214Z,60.40
2023-02-09T16:24:04.753Z,50.20
2023-02-09T16:26:35.106Z,52.60
2023-02-09T16:29:04.680Z,44.00
2023-02-09T16:31:33.383Z,51.70
2023-02-09T16:34:02.712Z,47.40
2023-02-09T16:36:31.834Z,51.50
2023-02-09T16:39:00.237Z,45.30
2023-02-09T16:41:52.672Z,51.10
2023-02-09T16:44:24.319Z,45.80
2023-02-09T16:46:56.030Z,47.60
2023-02-09T16:49:28.700Z,45.60
2023-02-09T16:52:02.484Z,49.10
2023-02-09T16:57:03.662Z,39.10
2023-02-09T16:59:32.188Z,38.20
2023-02-09T17:02:02.389Z,42.20
2023-02-09T17:04:30.912Z,42.50
2023-02-09T17:06:59.357Z,40.20
2023-02-09T17:09:27.999Z,44.50
2023-02-09T17:11:56.974Z,40.30
2023-02-09T17:14:26.188Z,46.70
2023-02-09T17:16:55.514Z,53.00
2023-02-09T17:19:24.963Z,44.60
2023-02-09T17:21:56.381Z,47.90
2023-02-09T17:24:25.643Z,44.90
2023-02-09T17:26:55.074Z,34.00
2023-02-09T17:29:24.330Z,38.00
2023-02-09T17:31:53.995Z,48.50
2023-02-09T17:34:27.393Z,46.30
2023-02-09T17:36:57.544Z,37.10
2023-02-09T17:39:27.516Z,41.40
2023-02-09T17:41:58.162Z,50.70
2023-02-09T17:44:45.093Z,43.70
2023-02-09T17:47:18.339Z,41.10
2023-02-09T17:49:48.078Z,39.20
2023-02-09T17:52:19.237Z,47.00
2023-02-09T17:54:47.954Z,44.30
2023-02-09T17:57:17.495Z,42.50
2023-02-09T17:59:48.403Z,38.70
2023-02-09T18:02:20.415Z,40.50
2023-02-09T18:04:49.412Z,47.30
2023-02-09T18:07:20.735Z,47.40
2023-02-09T18:09:49.610Z,43.10
2023-02-09T18:12:24.395Z,39.30
2023-02-09T18:14:53.183Z,41.00
2023-02-09T18:17:21.638Z,41.40
2023-02-09T18:19:49.993Z,40.50
2023-02-09T18:22:20.012Z,41.10
2023-02-09T18:24:50.220Z,40.60
2023-02-09T18:27:21.207Z,40.50
2023-02-09T18:29:49.579Z,38.50
2023-02-09T18:32:18.212Z,38.70
2023-02-09T18:34:46.893Z,43.90
2023-02-09T18:37:16.706Z,43.50
2023-02-09T18:39:46.929Z,61.70
2023-02-09T18:42:16.417Z,75.90
2023-02-09T18:44:45.351Z,73.00
2023-02-09T18:47:14.934Z,69.10
2023-02-09T18:49:43.406Z,65.20
2023-02-09T18:52:17.160Z,63.90
2023-02-09T18:54:45.431Z,42.60
2023-02-09T18:57:14.131Z,44.50
2023-02-09T18:59:42.616Z,48.90
2023-02-09T19:02:14.143Z,51.70
2023-02-09T19:04:44.021Z,43.10
2023-02-09T19:07:14.442Z,39.80
2023-02-09T19:09:46.205Z,36.70
2023-02-09T19:12:14.624Z,36.40
2023-02-09T19:14:46.569Z,39.80
2023-02-09T19:17:17.465Z,41.40
2023-02-09T19:19:46.528Z,45.90
2023-02-09T19:22:22.122Z,48.20
2023-02-09T19:24:53.234Z,44.70
2023-02-09T19:27:22.330Z,42.20
2023-02-09T19:29:55.644Z,38.90
2023-02-09T19:32:25.812Z,43.80
2023-02-09T19:34:54.167Z,45.30
2023-02-09T19:37:22.704Z,39.40
2023-02-09T19:40:00.917Z,43.60
2023-02-09T19:42:29.335Z,36.40
2023-02-09T19:44:57.881Z,40.60
2023-02-09T19:47:27.556Z,41.60
2023-02-09T19:49:58.212Z,43.40
2023-02-09T19:52:28.089Z,53.80
2023-02-09T19:54:57.909Z,57.40
2023-02-09T19:57:26.650Z,57.50
2023-02-09T19:59:54.931Z,60.40
2023-02-09T20:02:23.218Z,68.50
2023-02-09T20:04:51.706Z,75.80
2023-02-09T20:07:20.057Z,57.20
2023-02-09T20:09:49.972Z,49.60
2023-02-09T20:12:21.889Z,45.80
2023-02-09T20:14:50.476Z,38.50
2023-02-09T20:19:47.988Z,47.10
2023-02-09T20:22:16.404Z,38.10
2023-02-09T20:24:44.914Z,36.00
2023-02-09T20:27:13.366Z,36.00
2023-02-09T20:29:41.950Z,35.30
2023-02-09T20:32:11.215Z,36.80
2023-02-09T20:34:39.726Z,37.60
2023-02-09T20:37:08.059Z,37.70
2023-02-09T20:39:36.262Z,32.20
2023-02-09T20:42:23.804Z,30.70
2023-02-09T20:45:10.760Z,33.10
2023-02-09T20:47:39.012Z,31.50
2023-02-09T20:50:08.090Z,30.60
2023-02-09T20:52:36.454Z,29.30
2023-02-09T20:55:04.892Z,26.90
2023-02-09T20:57:33.939Z,26.80
2023-02-09T21:00:02.404Z,26.90
2023-02-09T21:02:30.881Z,28.10
2023-02-09T21:04:59.890Z,29.10
2023-02-09T21:07:28.419Z,29.90
2023-02-09T21:09:57.595Z,40.50
2023-02-09T21:12:26.673Z,43.30
2023-02-09T21:14:56.709Z,43.30
2023-02-09T21:17:25.368Z,45.10
2023-02-09T21:19:54.003Z,44.00
2023-02-09T21:22:22.447Z,43.90
2023-02-09T21:24:50.791Z,34.00
2023-02-09T21:27:19.625Z,34.20
2023-02-09T21:29:47.999Z,37.00
2023-02-09T21:32:16.721Z,35.90
2023-02-09T21:34:44.909Z,38.60
2023-02-09T21:37:14.535Z,56.10
2023-02-09T21:39:43.683Z,113.90
2023-02-09T21:42:26.007Z,90.90
2023-02-09T21:44:58.282Z,77.80
2023-02-09T21:47:29.183Z,49.30
2023-02-09T21:49:58.715Z,48.60
2023-02-09T21:52:30.223Z,60.80
2023-02-09T21:54:59.513Z,60.10
2023-02-09T21:57:28.496Z,51.00
2023-02-09T21:59:59.361Z,59.20
2023-02-09T22:02:28.190Z,56.90
2023-02-09T22:04:57.069Z,70.80
2023-02-09T22:07:26.340Z,63.20
2023-02-09T22:09:55.350Z,63.50
2023-02-09T22:12:23.869Z,64.80
2023-02-09T22:14:53.197Z,49.90
2023-02-09T22:17:22.221Z,47.70
2023-02-09T22:19:50.652Z,43.30
2023-02-09T22:22:19.378Z,43.60
2023-02-09T22:24:47.891Z,42.60
2023-02-09T22:27:16.894Z,43.60
2023-02-09T22:29:46.715Z,37.70
2023-02-09T22:32:15.370Z,32.60
2023-02-09T22:34:44.048Z,38.60
2023-02-09T22:37:13.265Z,42.10
2023-02-09T22:39:42.440Z,41.00
2023-02-09T22:42:11.924Z,33.10
2023-02-09T22:44:41.089Z,37.40
2023-02-09T22:47:10.154Z,30.50
2023-02-09T22:49:39.533Z,30.50
2023-02-09T22:52:09.338Z,35.10
2023-02-09T22:54:38.490Z,40.10
2023-02-09T22:57:07.331Z,40.20
2023-02-09T22:59:36.621Z,36.30
2023-02-09T23:02:06.363Z,34.50
2023-02-09T23:04:35.882Z,40.30
2023-02-09T23:07:05.449Z,28.80
2023-02-09T23:09:33.921Z,36.40
2023-02-09T23:12:03.664Z,26.40
2023-02-09T23:14:33.256Z,27.00
2023-02-09T23:17:02.160Z,33.30
2023-02-09T23:19:31.352Z,30.80
2023-02-09T23:22:00.498Z,29.70
2023-02-09T23:24:29.598Z,33.60
2023-02-09T23:26:58.630Z,28.40
2023-02-09T23:29:29.137Z,29.80
2023-02-09T23:31:59.023Z,30.50
2023-02-09T23:34:28.393Z,28.70
2023-02-09T23:37:04.995Z,31.20
2023-02-09T23:39:43.336Z,39.40
2023-02-09T23:42:12.202Z,30.40
2023-02-09T23:44:41.300Z,30.60
2023-02-09T23:47:09.661Z,30.10
2023-02-09T23:49:38.643Z,32.80
2023-02-09T23:52:07.453Z,29.20
2023-02-09T23:54:36.671Z,27.00
2023-02-09T23:57:05.888Z,30.10
2023-02-09T23:59:34.570Z,31.90
